Time;durP1;ratioP1;P1;durP2;ratioP2;P2;SDS_P1;SDS_P2;PMS_P1;PMS_P2;Temp;Humidity;BMP_temperature;BMP_pressure;BME280_temperature;BME280_humidity;BME280_pressure;Samples;Min_cycle;Max_cycle;Signal;HPM_P1;HPM_P2
2023/06/18 00:00:00;;;;;;;38.35;26.70;;;15.90;99.90;;;;;;5008567;28;20037;-66
2023/06/18 00:02:25;;;;;;;31.17;24.83;;;15.90;99.90;;;;;;5005637;28;20034;-66
2023/06/18 00:04:51;;;;;;;35.33;26.30;;;15.90;99.90;;;;;;4978098;28;20075;-66
2023/06/18 00:07:17;;;;;;;37.70;26.75;;;15.90;99.90;;;;;;5003927;28;20594;-66
2023/06/18 00:09:43;;;;;;;36.13;26.48;;;15.80;99.90;;;;;;5007560;28;20041;-66
2023/06/18 00:12:10;;;;;;;36.67;26.02;;;15.80;99.90;;;;;;5005412;28;20608;-66
2023/06/18 00:14:36;;;;;;;34.45;25.42;;;15.80;99.90;;;;;;5006860;28;20046;-66
2023/06/18 00:17:02;;;;;;;33.83;26.20;;;15.70;99.90;;;;;;4994260;28;20061;-66
2023/06/18 00:19:27;;;;;;;33.47;25.02;;;15.70;99.90;;;;;;5000338;28;20038;-66
2023/06/18 00:21:53;;;;;;;32.70;24.80;;;15.70;99.90;;;;;;5008336;28;20042;-66
2023/06/18 00:24:19;;;;;;;31.02;23.52;;;15.70;99.90;;;;;;5000168;28;20057;-66
2023/06/18 00:26:45;;;;;;;30.15;22.85;;;15.70;99.90;;;;;;5005555;28;20056;-66
2023/06/18 00:29:10;;;;;;;33.30;24.95;;;15.70;99.90;;;;;;4999754;28;20128;-66
2023/06/18 00:31:36;;;;;;;34.92;25.25;;;15.60;99.90;;;;;;4999678;28;20046;-66
2023/06/18 00:34:06;;;;;;;33.85;24.35;;;15.60;99.90;;;;;;5007703;28;20050;-66
2023/06/18 00:36:38;;;;;;;29.77;23.35;;;15.60;99.90;;;;;;5003417;28;20050;-66
2023/06/18 00:39:04;;;;;;;32.10;23.35;;;15.60;99.90;;;;;;4994657;28;20053;-66
2023/06/18 00:41:31;;;;;;;29.23;23.10;;;15.50;99.90;;;;;;4998061;28;20041;-66
2023/06/18 00:43:57;;;;;;;29.73;22.35;;;15.50;99.90;;;;;;5005225;28;20050;-66
2023/06/18 00:46:25;;;;;;;28.45;22.23;;;15.70;99.90;;;;;;5007707;28;20042;-66
2023/06/18 00:48:53;;;;;;;32.45;23.30;;;15.40;99.90;;;;;;5008469;28;20057;-66
2023/06/18 00:51:21;;;;;;;30.52;22.60;;;15.40;99.90;;;;;;5005789;28;20124;-66
2023/06/18 00:53:46;;;;;;;29.35;22.20;;;15.40;99.90;;;;;;5007097;28;20061;-66
2023/06/18 00:56:13;;;;;;;30.50;23.23;;;15.40;99.90;;;;;;4986105;28;20050;-66
2023/06/18 00:58:39;;;;;;;29.67;23.23;;;15.30;99.90;;;;;;5003503;28;20139;-66
2023/06/18 01:01:08;;;;;;;28.98;21.80;;;15.30;99.90;;;;;;4990869;28;20044;-66
2023/06/18 01:03:34;;;;;;;29.40;21.25;;;15.30;99.90;;;;;;4995362;28;20129;-66
2023/06/18 01:06:04;;;;;;;27.67;22.20;;;15.20;99.90;;;;;;5005243;28;20514;-66
2023/06/18 01:08:33;;;;;;;28.00;21.85;;;15.20;99.90;;;;;;5005580;28;20038;-66
2023/06/18 01:11:04;;;;;;;29.40;22.10;;;15.20;99.90;;;;;;5006024;28;20133;-66
2023/06/18 01:13:33;;;;;;;28.42;22.13;;;15.20;99.90;;;;;;4989995;28;20057;-66
2023/06/18 01:16:05;;;;;;;27.77;21.52;;;15.30;99.90;;;;;;5005281;28;20109;-66
2023/06/18 01:18:46;;;;;;;27.58;20.73;;;15.20;99.90;;;;;;5001473;28;20703;-66
2023/06/18 01:21:18;;;;;;;28.63;20.60;;;15.20;99.90;;;;;;5006231;28;20049;-66
2023/06/18 01:24:01;;;;;;;27.17;20.58;;;15.10;99.90;;;;;;5004796;28;20161;-66
2023/06/18 01:26:28;;;;;;;27.42;20.52;;;15.10;99.90;;;;;;5005265;28;20111;-66
2023/06/18 01:28:58;;;;;;;26.30;20.23;;;15.10;99.90;;;;;;5004853;28;20474;-66
2023/06/18 01:31:25;;;;;;;26.57;18.97;;;15.10;99.90;;;;;;5006423;28;20088;-66
2023/06/18 01:33:53;;;;;;;28.50;20.00;;;15.20;99.90;;;;;;5005656;28;20700;-66
2023/06/18 01:36:37;;;;;;;27.90;20.05;;;15.20;99.90;;;;;;5006372;28;20042;-66
2023/06/18 01:39:37;;;;;;;27.17;19.20;;;15.10;99.90;;;;;;4990178;28;20057;-67
2023/06/18 01:42:13;;;;;;;26.35;18.42;;;15.10;99.90;;;;;;5003668;28;20453;-67
2023/06/18 01:44:43;;;;;;;26.25;18.55;;;15.10;99.90;;;;;;5005050;28;20056;-66
2023/06/18 01:47:13;;;;;;;24.88;19.55;;;15.10;99.90;;;;;;5005952;28;20058;-67
2023/06/18 01:49:40;;;;;;;25.70;19.60;;;15.10;99.90;;;;;;5007209;28;20046;-66
2023/06/18 01:52:08;;;;;;;27.05;20.05;;;15.00;99.90;;;;;;4988592;28;20395;-66
2023/06/18 01:54:36;;;;;;;25.88;19.38;;;15.00;99.90;;;;;;5006124;28;20594;-66
2023/06/18 01:57:03;;;;;;;26.60;19.77;;;15.00;99.90;;;;;;5005285;28;20104;-69
2023/06/18 01:59:29;;;;;;;27.13;18.98;;;15.00;99.90;;;;;;4986212;28;20085;-69
2023/06/18 02:01:54;;;;;;;27.40;19.88;;;15.00;99.90;;;;;;5003375;28;20049;-68
2023/06/18 02:04:20;;;;;;;27.42;19.75;;;15.00;99.90;;;;;;5005346;28;20053;-66
2023/06/18 02:06:46;;;;;;;28.35;20.23;;;15.00;99.90;;;;;;5004667;28;20046;-66
2023/06/18 02:09:11;;;;;;;25.88;19.95;;;14.90;99.90;;;;;;5005227;28;20056;-69
2023/06/18 02:11:37;;;;;;;27.33;20.35;;;14.90;99.90;;;;;;5005058;28;20049;-69
2023/06/18 02:14:03;;;;;;;30.80;20.50;;;14.90;99.90;;;;;;5004416;28;20045;-69
2023/06/18 02:16:29;;;;;;;25.75;19.88;;;14.90;99.90;;;;;;4989684;28;20050;-69
2023/06/18 02:18:54;;;;;;;27.75;19.77;;;14.80;99.90;;;;;;5007427;28;20116;-69
2023/06/18 02:21:20;;;;;;;26.92;18.85;;;14.80;99.90;;;;;;5001607;28;21709;-69
2023/06/18 02:23:46;;;;;;;26.38;18.85;;;15.00;99.90;;;;;;5001800;28;20050;-69
2023/06/18 02:26:13;;;;;;;29.38;21.35;;;14.80;99.90;;;;;;5035496;28;20054;-69
2023/06/18 02:28:39;;;;;;;24.63;18.50;;;14.80;99.90;;;;;;5002793;28;20049;-69
2023/06/18 02:31:06;;;;;;;26.50;19.92;;;14.70;99.90;;;;;;4997529;28;20545;-69
2023/06/18 02:33:32;;;;;;;26.38;19.77;;;14.70;99.90;;;;;;5013625;28;20093;-69
2023/06/18 02:35:58;;;;;;;29.65;20.77;;;14.70;99.90;;;;;;5004935;28;20046;-69
2023/06/18 02:38:23;;;;;;;27.92;20.27;;;14.70;99.90;;;;;;5002200;28;20502;-69
2023/06/18 02:40:49;;;;;;;29.13;19.88;;;14.60;99.90;;;;;;5005349;28;20035;-69
2023/06/18 02:43:15;;;;;;;30.38;21.50;;;14.60;99.90;;;;;;5002775;28;20054;-69
2023/06/18 02:45:40;;;;;;;31.40;22.30;;;14.60;99.90;;;;;;5002537;28;20108;-69
2023/06/18 02:48:06;;;;;;;33.30;22.20;;;14.60;99.90;;;;;;5004029;28;20103;-69
2023/06/18 02:50:32;;;;;;;34.50;23.52;;;14.60;99.90;;;;;;5003654;28;20042;-69
2023/06/18 02:52:57;;;;;;;31.25;22.58;;;14.60;99.90;;;;;;5001317;28;20046;-69
2023/06/18 02:55:23;;;;;;;26.80;20.33;;;14.50;99.90;;;;;;5005899;28;20069;-69
2023/06/18 02:57:50;;;;;;;30.00;20.85;;;14.50;99.90;;;;;;5005818;28;20046;-69
2023/06/18 03:00:16;;;;;;;28.60;20.80;;;14.50;99.90;;;;;;5005762;28;20520;-69
2023/06/18 03:02:42;;;;;;;29.00;20.13;;;14.50;99.90;;;;;;5005479;28;20049;-69
2023/06/18 03:05:09;;;;;;;25.95;19.30;;;14.40;99.90;;;;;;4995122;28;20128;-69
2023/06/18 03:07:35;;;;;;;27.23;18.58;;;14.50;99.90;;;;;;5007397;28;20049;-70
2023/06/18 03:10:02;;;;;;;25.23;18.45;;;14.40;99.90;;;;;;5039352;28;20050;-69
2023/06/18 03:12:28;;;;;;;27.17;17.88;;;14.40;99.90;;;;;;4984293;28;20050;-69
2023/06/18 03:14:55;;;;;;;24.90;18.15;;;14.40;99.90;;;;;;5007228;28;20050;-69
2023/06/18 03:17:21;;;;;;;27.60;18.48;;;14.30;99.90;;;;;;5004381;28;20104;-69
2023/06/18 03:19:46;;;;;;;28.38;16.65;;;14.30;99.90;;;;;;5001390;28;20046;-69
2023/06/18 03:22:12;;;;;;;41.95;16.50;;;14.30;99.90;;;;;;5008571;28;20513;-69
2023/06/18 03:24:38;;;;;;;18.88;14.65;;;14.20;99.90;;;;;;5008146;28;20041;-69
2023/06/18 03:27:04;;;;;;;23.15;15.60;;;14.20;99.90;;;;;;5009892;28;20140;-69
2023/06/18 03:29:30;;;;;;;20.15;15.73;;;14.20;99.90;;;;;;5008325;28;20046;-69
2023/06/18 03:31:56;;;;;;;34.30;16.17;;;14.10;99.90;;;;;;5006993;28;20105;-67
2023/06/18 03:34:22;;;;;;;22.05;16.38;;;14.00;99.90;;;;;;5008410;28;20593;-66
2023/06/18 03:36:49;;;;;;;20.00;14.50;;;13.90;99.90;;;;;;5010377;28;20059;-66
2023/06/18 03:39:15;;;;;;;18.85;13.77;;;13.80;99.90;;;;;;5009302;28;20037;-66
2023/06/18 03:41:41;;;;;;;20.23;13.65;;;13.80;99.90;;;;;;5005916;28;20480;-67
2023/06/18 03:44:07;;;;;;;18.95;12.90;;;13.70;99.90;;;;;;5006346;28;20045;-66
2023/06/18 03:46:33;;;;;;;21.20;15.75;;;13.70;99.90;;;;;;5008114;28;20096;-66
2023/06/18 03:48:59;;;;;;;20.00;14.98;;;13.70;99.90;;;;;;5008297;28;20038;-66
2023/06/18 03:51:26;;;;;;;21.17;16.35;;;13.70;99.90;;;;;;5014895;28;20073;-67
2023/06/18 03:53:52;;;;;;;22.20;16.45;;;13.60;99.90;;;;;;5006569;28;20527;-67
2023/06/18 03:56:18;;;;;;;23.30;17.00;;;13.70;99.90;;;;;;5003497;28;20050;-66
2023/06/18 03:58:44;;;;;;;24.70;18.02;;;13.70;99.90;;;;;;5018369;28;20514;-66
2023/06/18 04:01:10;;;;;;;24.55;17.75;;;13.70;99.90;;;;;;5005538;28;20046;-66
2023/06/18 04:03:36;;;;;;;24.95;18.30;;;13.70;99.90;;;;;;5008692;28;20046;-66
2023/06/18 04:06:02;;;;;;;27.55;20.25;;;13.80;99.90;;;;;;5008100;28;20125;-66
2023/06/18 04:08:28;;;;;;;30.27;21.27;;;13.80;99.90;;;;;;5003289;28;20930;-66
2023/06/18 04:10:55;;;;;;;32.67;20.67;;;13.80;99.90;;;;;;5034413;28;20050;-66
2023/06/18 04:13:22;;;;;;;27.20;19.25;;;13.90;99.90;;;;;;4985487;28;20454;-66
2023/06/18 04:15:48;;;;;;;31.13;21.45;;;13.90;99.90;;;;;;5020582;28;20046;-66
2023/06/18 04:18:14;;;;;;;32.85;21.65;;;13.90;99.90;;;;;;5007263;28;20400;-67
2023/06/18 04:20:40;;;;;;;30.52;21.48;;;14.00;99.90;;;;;;4990943;28;20129;-66
2023/06/18 04:23:06;;;;;;;34.38;22.58;;;14.00;99.90;;;;;;5004978;28;20081;-66
2023/06/18 04:25:32;;;;;;;40.50;24.00;;;14.00;99.90;;;;;;5009359;28;20042;-66
2023/06/18 04:27:59;;;;;;;33.33;22.85;;;14.10;99.90;;;;;;4973033;28;20061;-66
2023/06/18 04:30:25;;;;;;;37.00;24.20;;;14.10;99.90;;;;;;4999575;28;20038;-66
2023/06/18 04:32:50;;;;;;;37.78;24.70;;;14.20;99.90;;;;;;5009692;28;20052;-66
2023/06/18 04:35:16;;;;;;;38.28;24.70;;;14.20;99.90;;;;;;4996865;28;20061;-66
2023/06/18 04:37:42;;;;;;;39.05;25.67;;;14.20;99.90;;;;;;5005231;28;20521;-66
2023/06/18 04:40:09;;;;;;;37.72;25.85;;;14.20;99.90;;;;;;5003438;28;20052;-66
2023/06/18 04:42:38;;;;;;;37.38;25.65;;;14.30;99.90;;;;;;5005214;28;20077;-66
2023/06/18 04:45:04;;;;;;;38.58;25.52;;;14.30;99.90;;;;;;5003565;28;20120;-66
2023/06/18 04:47:32;;;;;;;40.72;25.88;;;14.40;99.90;;;;;;5003194;28;20391;-66
2023/06/18 04:49:58;;;;;;;33.15;23.70;;;14.40;99.90;;;;;;5006285;28;20052;-66
2023/06/18 04:52:23;;;;;;;34.70;24.38;;;14.50;99.90;;;;;;5003118;28;20112;-66
2023/06/18 04:54:52;;;;;;;37.53;25.45;;;14.50;99.90;;;;;;5004730;28;20053;-70
2023/06/18 04:57:19;;;;;;;44.92;26.98;;;14.60;99.90;;;;;;5005194;28;20060;-70
2023/06/18 04:59:46;;;;;;;39.20;26.08;;;14.60;99.90;;;;;;5004777;28;20049;-69
2023/06/18 05:02:12;;;;;;;39.13;25.88;;;14.60;99.90;;;;;;4986703;28;20038;-70
2023/06/18 05:04:37;;;;;;;39.47;25.67;;;14.70;99.90;;;;;;5004552;28;20034;-70
2023/06/18 05:07:03;;;;;;;36.83;25.75;;;14.70;99.90;;;;;;5006028;28;20038;-70
2023/06/18 05:09:30;;;;;;;48.72;27.35;;;14.70;99.90;;;;;;5000783;28;20544;-70
2023/06/18 05:11:55;;;;;;;40.38;27.60;;;14.80;99.90;;;;;;5004442;28;20049;-69
2023/06/18 05:14:21;;;;;;;39.25;27.20;;;14.80;99.90;;;;;;5005113;28;20104;-69
2023/06/18 05:16:47;;;;;;;38.20;25.88;;;14.80;99.90;;;;;;5005135;28;20064;-70
2023/06/18 05:19:13;;;;;;;37.30;25.45;;;14.80;99.90;;;;;;5004779;28;20557;-70
2023/06/18 05:21:38;;;;;;;41.38;27.25;;;14.90;99.90;;;;;;5001943;28;20045;-69
2023/06/18 05:24:07;;;;;;;44.90;28.25;;;14.90;99.90;;;;;;5004343;28;20049;-70
2023/06/18 05:26:33;;;;;;;38.90;25.83;;;14.90;99.90;;;;;;5006517;28;20049;-70
2023/06/18 05:28:59;;;;;;;38.53;26.25;;;15.00;99.90;;;;;;5005307;28;20042;-70
2023/06/18 05:31:24;;;;;;;39.25;26.70;;;15.00;99.90;;;;;;5006996;28;20632;-70
2023/06/18 05:33:50;;;;;;;36.28;25.80;;;15.10;99.90;;;;;;5004284;28;20046;-70
2023/06/18 05:36:16;;;;;;;35.20;24.63;;;15.10;99.90;;;;;;5006085;28;20114;-67
2023/06/18 05:38:41;;;;;;;37.28;24.33;;;15.10;99.90;;;;;;5007210;28;20088;-66
2023/06/18 05:41:07;;;;;;;33.97;23.27;;;15.20;99.90;;;;;;5002060;28;20042;-67
2023/06/18 05:43:33;;;;;;;39.47;25.27;;;15.20;99.90;;;;;;5000587;28;20042;-66
2023/06/18 05:45:58;;;;;;;34.85;24.92;;;15.30;99.90;;;;;;5002662;28;20046;-67
2023/06/18 05:48:25;;;;;;;33.72;23.90;;;15.40;99.90;;;;;;5004701;28;20395;-67
2023/06/18 05:50:51;;;;;;;34.17;24.65;;;15.40;99.90;;;;;;5001082;28;20096;-66
2023/06/18 05:53:17;;;;;;;35.92;24.20;;;15.50;99.90;;;;;;5002103;28;20639;-66
2023/06/18 05:55:42;;;;;;;33.17;23.80;;;15.50;99.90;;;;;;5003181;28;20042;-66
2023/06/18 05:58:08;;;;;;;35.20;24.20;;;15.50;99.90;;;;;;4986793;28;20042;-66
2023/06/18 06:00:33;;;;;;;36.00;24.13;;;15.60;99.90;;;;;;5004179;28;20042;-67
2023/06/18 06:02:59;;;;;;;32.55;22.40;;;15.70;99.90;;;;;;4996007;28;20074;-67
2023/06/18 06:05:25;;;;;;;34.67;24.15;;;15.70;99.90;;;;;;5002131;28;20128;-67
2023/06/18 06:07:51;;;;;;;35.80;24.58;;;15.80;99.90;;;;;;5034338;28;20411;-66
2023/06/18 06:10:21;;;;;;;34.22;24.67;;;15.90;99.90;;;;;;5000863;28;20038;-66
2023/06/18 06:12:47;;;;;;;35.77;24.10;;;15.90;99.90;;;;;;5003238;28;20041;-67
2023/06/18 06:15:12;;;;;;;34.85;25.63;;;16.00;99.90;;;;;;5005686;28;20041;-67
2023/06/18 06:17:38;;;;;;;36.08;26.55;;;16.00;99.90;;;;;;5004318;28;20569;-67
2023/06/18 06:20:05;;;;;;;33.50;25.52;;;16.00;99.90;;;;;;5005460;28;20113;-66
2023/06/18 06:22:30;;;;;;;35.70;26.25;;;16.10;99.90;;;;;;5002221;28;20409;-67
2023/06/18 06:24:57;;;;;;;35.70;26.13;;;16.20;99.90;;;;;;5004765;28;20125;-67
2023/06/18 06:27:23;;;;;;;33.80;25.63;;;16.20;99.90;;;;;;5001372;28;20057;-67
2023/06/18 06:29:49;;;;;;;37.38;24.75;;;16.30;99.90;;;;;;5003524;28;20104;-67
2023/06/18 06:32:15;;;;;;;34.58;24.40;;;16.40;99.90;;;;;;5004576;28;20046;-66
2023/06/18 06:34:40;;;;;;;34.38;24.50;;;16.40;99.90;;;;;;5000167;28;20069;-67
2023/06/18 06:37:07;;;;;;;37.75;24.95;;;16.50;99.90;;;;;;5002145;28;20046;-66
2023/06/18 06:39:33;;;;;;;34.20;23.98;;;16.60;99.90;;;;;;5001878;28;20491;-67
2023/06/18 06:41:59;;;;;;;30.75;22.90;;;16.70;99.90;;;;;;5005573;28;20044;-67
2023/06/18 06:44:24;;;;;;;32.67;23.40;;;16.70;99.90;;;;;;5009863;28;20045;-67
2023/06/18 06:46:50;;;;;;;34.28;24.35;;;16.80;99.90;;;;;;4989434;28;20413;-67
2023/06/18 06:49:16;;;;;;;30.30;23.50;;;16.90;99.90;;;;;;5033990;28;20053;-67
2023/06/18 06:51:42;;;;;;;34.05;22.92;;;16.90;99.90;;;;;;5008797;28;20694;-67
2023/06/18 06:54:09;;;;;;;30.95;22.65;;;17.00;99.90;;;;;;5026782;28;20120;-67
2023/06/18 06:56:35;;;;;;;29.70;23.00;;;17.00;99.90;;;;;;4973990;28;20051;-67
2023/06/18 06:59:01;;;;;;;29.08;21.95;;;17.10;99.90;;;;;;4994648;28;20502;-67
2023/06/18 07:01:26;;;;;;;28.00;21.38;;;17.20;99.90;;;;;;5003489;28;20042;-67
2023/06/18 07:03:52;;;;;;;26.67;20.73;;;17.30;99.90;;;;;;5004450;28;20529;-67
2023/06/18 07:06:18;;;;;;;31.25;21.48;;;17.30;99.90;;;;;;5006093;28;20089;-67
2023/06/18 07:08:44;;;;;;;28.90;20.77;;;17.40;99.90;;;;;;5002882;28;20049;-67
2023/06/18 07:11:10;;;;;;;27.15;19.95;;;17.50;99.90;;;;;;5010314;28;20046;-67
2023/06/18 07:13:36;;;;;;;29.25;19.33;;;17.60;99.90;;;;;;4990908;28;20057;-66
2023/06/18 07:16:02;;;;;;;26.98;19.27;;;17.70;99.90;;;;;;5024187;28;21979;-67
2023/06/18 07:18:28;;;;;;;26.38;19.73;;;17.70;99.90;;;;;;5024201;28;20073;-67
2023/06/18 07:20:54;;;;;;;25.13;18.92;;;17.80;99.90;;;;;;4997455;28;20156;-67
2023/06/18 07:23:20;;;;;;;25.50;19.33;;;18.00;99.90;;;;;;5001889;28;20044;-67
2023/06/18 07:25:45;;;;;;;28.23;18.83;;;18.10;99.90;;;;;;5003445;28;20141;-68
2023/06/18 07:28:11;;;;;;;25.98;19.15;;;18.20;99.90;;;;;;4984753;28;20089;-67
2023/06/18 07:30:37;;;;;;;25.52;18.90;;;18.30;99.90;;;;;;5020034;28;20076;-67
2023/06/18 07:33:03;;;;;;;22.95;17.05;;;18.50;99.90;;;;;;4995801;28;20125;-68
2023/06/18 07:35:28;;;;;;;24.70;18.60;;;18.60;99.90;;;;;;4999691;28;20137;-67
2023/06/18 07:37:54;;;;;;;25.17;17.88;;;18.80;99.90;;;;;;4987382;28;20038;-71
2023/06/18 07:40:20;;;;;;;22.95;16.30;;;19.00;99.90;;;;;;4998201;28;20057;-71
2023/06/18 07:42:46;;;;;;;24.75;17.23;;;19.10;99.90;;;;;;4991091;28;20034;-71
2023/06/18 07:45:12;;;;;;;22.30;16.50;;;19.30;99.90;;;;;;4993838;28;20598;-72
2023/06/18 07:47:37;;;;;;;22.27;15.13;;;19.40;99.90;;;;;;5023546;28;20133;-70
2023/06/18 07:50:04;;;;;;;24.08;15.90;;;19.60;99.90;;;;;;4988817;28;20478;-68
2023/06/18 07:52:30;;;;;;;19.98;14.88;;;19.80;99.90;;;;;;4984501;28;20629;-68
2023/06/18 07:54:56;;;;;;;20.52;14.27;;;19.90;99.90;;;;;;4986056;28;20144;-68
2023/06/18 07:57:21;;;;;;;21.13;14.75;;;19.90;99.90;;;;;;4982456;28;20064;-68
2023/06/18 07:59:47;;;;;;;20.70;14.13;;;20.00;99.90;;;;;;4984516;28;20136;-68
2023/06/18 08:02:13;;;;;;;18.98;13.10;;;20.10;99.90;;;;;;4985824;28;20041;-68
2023/06/18 08:04:39;;;;;;;17.80;13.50;;;20.10;99.90;;;;;;4981926;28;20081;-68
2023/06/18 08:07:05;;;;;;;22.33;15.55;;;20.20;99.90;;;;;;4986788;28;20511;-68
2023/06/18 08:09:31;;;;;;;19.55;13.82;;;20.20;99.90;;;;;;4996969;28;20037;-68
2023/06/18 08:11:57;;;;;;;19.80;14.57;;;20.20;99.90;;;;;;5012231;28;20100;-68
2023/06/18 08:14:23;;;;;;;21.73;13.30;;;20.30;99.90;;;;;;4981681;28;20050;-68
2023/06/18 08:16:50;;;;;;;18.30;12.95;;;20.30;99.90;;;;;;4992267;28;20132;-68
2023/06/18 08:19:15;;;;;;;19.20;12.65;;;20.40;99.90;;;;;;4993037;28;20885;-68
2023/06/18 08:21:42;;;;;;;21.38;14.02;;;20.50;99.90;;;;;;4992849;28;20045;-68
2023/06/18 08:24:07;;;;;;;19.25;12.68;;;20.60;99.90;;;;;;4992146;28;20042;-68
2023/06/18 08:26:33;;;;;;;20.48;13.27;;;20.70;99.90;;;;;;4995410;28;20050;-68
2023/06/18 08:28:59;;;;;;;17.98;12.93;;;20.90;99.90;;;;;;4990047;28;20049;-68
2023/06/18 08:31:25;;;;;;;17.42;12.10;;;21.00;99.90;;;;;;5001748;28;21284;-68
2023/06/18 08:33:51;;;;;;;21.50;12.15;;;21.00;99.90;;;;;;4986771;28;20045;-68
2023/06/18 08:36:22;;;;;;;16.52;12.13;;;21.20;99.90;;;;;;4970620;28;20057;-68
2023/06/18 08:38:48;;;;;;;19.05;12.02;;;21.30;99.90;;;;;;4984399;28;20131;-68
2023/06/18 08:41:14;;;;;;;16.83;10.93;;;21.40;99.90;;;;;;5014410;28;20046;-68
2023/06/18 08:43:40;;;;;;;18.23;10.65;;;21.50;99.90;;;;;;4981238;28;20049;-68
2023/06/18 08:46:11;;;;;;;15.40;10.52;;;21.50;99.90;;;;;;4986316;28;20537;-68
2023/06/18 08:48:58;;;;;;;20.13;11.23;;;21.50;99.90;;;;;;4983936;28;20058;-68
2023/06/18 08:51:23;;;;;;;16.88;11.48;;;21.50;99.90;;;;;;4981123;28;20049;-68
2023/06/18 08:54:11;;;;;;;15.32;10.60;;;21.60;99.90;;;;;;4990760;28;20049;-68
2023/06/18 08:56:42;;;;;;;15.88;10.52;;;21.70;99.90;;;;;;4990702;28;20501;-68
2023/06/18 08:59:10;;;;;;;17.27;10.85;;;21.90;99.90;;;;;;4982559;28;20172;-68
2023/06/18 09:01:37;;;;;;;14.27;10.75;;;22.00;99.90;;;;;;4986851;28;20042;-68
2023/06/18 09:04:04;;;;;;;14.23;9.43;;;22.10;99.90;;;;;;4990911;28;20053;-68
2023/06/18 09:06:30;;;;;;;14.98;10.32;;;22.30;99.90;;;;;;4986787;28;20034;-68
2023/06/18 09:08:58;;;;;;;17.80;10.50;;;22.40;99.90;;;;;;5012358;28;20105;-69
2023/06/18 09:11:24;;;;;;;21.98;9.93;;;22.50;99.90;;;;;;5019063;28;20085;-69
2023/06/18 09:13:49;;;;;;;13.52;9.02;;;22.70;99.90;;;;;;4986194;28;20034;-69
2023/06/18 09:16:15;;;;;;;15.05;9.35;;;22.80;99.90;;;;;;4995546;28;20108;-68
2023/06/18 09:18:41;;;;;;;14.20;9.55;;;22.90;99.90;;;;;;4991460;28;20616;-68
2023/06/18 09:21:07;;;;;;;13.32;8.93;;;23.10;99.90;;;;;;4990767;28;20052;-69
2023/06/18 09:23:33;;;;;;;13.32;8.02;;;23.20;99.90;;;;;;5020325;28;20054;-68
2023/06/18 09:26:00;;;;;;;12.52;8.20;;;23.40;99.90;;;;;;4982794;28;20049;-68
2023/06/18 09:28:27;;;;;;;15.40;7.78;;;23.50;99.90;;;;;;4988357;28;20045;-69
2023/06/18 09:30:57;;;;;;;12.85;7.95;;;23.60;99.90;;;;;;4998215;28;20049;-67
2023/06/18 09:33:34;;;;;;;11.40;7.68;;;23.70;99.90;;;;;;5004136;28;20411;-67
2023/06/18 09:36:07;;;;;;;10.75;7.47;;;23.80;99.90;;;;;;4989875;28;20147;-68
2023/06/18 09:38:35;;;;;;;12.90;7.45;;;23.80;99.90;;;;;;4988871;28;20048;-67
2023/06/18 09:41:02;;;;;;;10.30;7.00;;;24.00;99.90;;;;;;4984685;28;20100;-67
2023/06/18 09:43:38;;;;;;;10.77;6.80;;;24.00;99.90;;;;;;4993372;28;20125;-67
2023/06/18 09:46:06;;;;;;;11.57;7.03;;;24.10;99.90;;;;;;4982328;28;20057;-67
2023/06/18 09:48:44;;;;;;;11.35;7.30;;;24.20;99.90;;;;;;4982454;28;20057;-68
2023/06/18 09:51:10;;;;;;;12.30;6.85;;;24.20;99.90;;;;;;5015193;28;20145;-67
2023/06/18 09:53:36;;;;;;;8.55;6.50;;;24.30;99.90;;;;;;4993432;28;20390;-67
2023/06/18 09:56:16;;;;;;;10.77;6.35;;;24.40;99.90;;;;;;4994835;28;20046;-67
2023/06/18 09:58:50;;;;;;;8.27;5.75;;;24.40;99.90;;;;;;4990097;28;20057;-67
2023/06/18 10:01:18;;;;;;;13.07;6.28;;;24.50;99.90;;;;;;5010262;28;20046;-67
2023/06/18 10:03:45;;;;;;;9.85;6.70;;;24.60;99.90;;;;;;5012323;28;20146;-71
2023/06/18 10:06:15;;;;;;;10.95;6.05;;;24.70;99.90;;;;;;4981471;28;20165;-72
2023/06/18 10:08:43;;;;;;;9.75;6.47;;;24.70;99.90;;;;;;4990319;28;20057;-72
2023/06/18 10:11:10;;;;;;;8.20;5.43;;;24.90;99.90;;;;;;4999444;28;20042;-72
2023/06/18 10:13:48;;;;;;;10.90;5.38;;;24.90;99.90;;;;;;4982989;28;20107;-72
2023/06/18 10:16:19;;;;;;;9.20;5.65;;;24.90;99.90;;;;;;4989737;28;20640;-72
2023/06/18 10:19:06;;;;;;;10.93;6.50;;;24.90;99.90;;;;;;5010198;28;20054;-71
2023/06/18 10:21:53;;;;;;;8.32;6.13;;;24.90;99.90;;;;;;4992459;28;20050;-71
2023/06/18 10:24:22;;;;;;;8.45;6.13;;;24.90;99.90;;;;;;4994341;28;20045;-72
2023/06/18 10:26:48;;;;;;;10.23;6.13;;;25.00;99.90;;;;;;4994082;28;20558;-72
2023/06/18 10:29:15;;;;;;;10.38;6.78;;;25.00;99.90;;;;;;5024047;28;20111;-72
2023/06/18 10:31:41;;;;;;;10.13;6.35;;;25.10;99.90;;;;;;4996724;28;20164;-72
2023/06/18 10:34:08;;;;;;;12.18;6.28;;;25.20;99.90;;;;;;4995633;28;20046;-71
2023/06/18 10:36:34;;;;;;;10.38;6.10;;;25.20;99.90;;;;;;4996505;28;20045;-71
2023/06/18 10:39:01;;;;;;;10.20;5.97;;;25.30;99.90;;;;;;5031668;28;20168;-71
2023/06/18 10:41:27;;;;;;;9.40;5.82;;;25.30;99.90;;;;;;4997708;28;20030;-71
2023/06/18 10:43:54;;;;;;;10.18;5.95;;;25.30;99.90;;;;;;4985774;28;20061;-71
2023/06/18 10:46:21;;;;;;;10.73;6.70;;;25.40;99.90;;;;;;5031920;28;20446;-71
2023/06/18 10:49:16;;;;;;;9.63;6.30;;;25.40;99.90;;;;;;5003427;28;20234;-71
2023/06/18 10:51:57;;;;;;;10.45;6.80;;;25.50;99.90;;;;;;5001753;28;20042;-71
2023/06/18 10:54:26;;;;;;;9.27;6.25;;;25.50;99.90;;;;;;4984491;28;20053;-71
2023/06/18 10:56:59;;;;;;;11.10;6.82;;;25.60;99.90;;;;;;5035041;28;20038;-72
2023/06/18 10:59:46;;;;;;;11.07;6.15;;;25.60;99.90;;;;;;4994040;28;20045;-71
2023/06/18 11:02:13;;;;;;;9.55;6.07;;;25.60;99.90;;;;;;5002620;28;20050;-71
2023/06/18 11:04:39;;;;;;;11.00;6.22;;;25.70;99.90;;;;;;5003739;28;20126;-72
2023/06/18 11:07:16;;;;;;;13.30;6.28;;;25.70;99.90;;;;;;5002673;28;20041;-71
2023/06/18 11:10:00;;;;;;;12.77;5.63;;;25.80;99.90;;;;;;4994796;28;20050;-73
2023/06/18 11:12:28;;;;;;;11.18;6.18;;;25.90;99.90;;;;;;4993806;28;20061;-73
2023/06/18 11:15:16;;;;;;;10.60;6.40;;;25.90;99.90;;;;;;4994290;28;20945;-73
2023/06/18 11:18:01;;;;;;;9.95;5.82;;;26.00;99.90;;;;;;4996712;28;20042;-73
2023/06/18 11:20:31;;;;;;;8.60;6.30;;;26.10;99.90;;;;;;4995801;28;20046;-73
2023/06/18 11:23:01;;;;;;;11.30;6.60;;;26.20;99.90;;;;;;4977843;28;20545;-74
2023/06/18 11:25:29;;;;;;;8.63;6.28;;;26.30;99.90;;;;;;5009451;28;20042;-74
2023/06/18 11:27:58;;;;;;;8.45;5.82;;;26.30;99.90;;;;;;4991364;28;20057;-73
2023/06/18 11:30:24;;;;;;;10.18;6.15;;;26.30;99.40;;;;;;4993553;28;20046;-73
2023/06/18 11:32:50;;;;;;;9.32;5.85;;;26.40;99.90;;;;;;5024379;28;20037;-73
2023/06/18 11:35:15;;;;;;;9.23;6.15;;;26.30;99.90;;;;;;5024821;28;21267;-74
2023/06/18 11:37:42;;;;;;;9.90;5.45;;;26.40;99.90;;;;;;4993826;28;20133;-73
2023/06/18 11:40:09;;;;;;;8.52;5.78;;;26.40;99.80;;;;;;4994296;28;20073;-72
2023/06/18 11:42:47;;;;;;;9.18;5.60;;;26.30;99.80;;;;;;4995725;28;20179;-73
2023/06/18 11:45:13;;;;;;;8.13;5.72;;;26.40;98.50;;;;;;5009931;28;20072;-73
2023/06/18 11:47:49;;;;;;;10.43;5.45;;;26.40;98.50;;;;;;5025873;28;20069;-73
2023/06/18 11:50:16;;;;;;;9.25;5.60;;;26.40;99.30;;;;;;4993205;28;20046;-73
2023/06/18 11:52:43;;;;;;;9.75;6.00;;;26.50;99.20;;;;;;5025843;28;20131;-73
2023/06/18 11:55:09;;;;;;;8.77;5.90;;;26.50;99.00;;;;;;5009610;28;20046;-73
2023/06/18 11:57:35;;;;;;;8.43;5.10;;;26.50;98.40;;;;;;5010089;28;20054;-73
2023/06/18 12:00:01;;;;;;;10.00;5.47;;;26.50;97.10;;;;;;4991917;28;20126;-73
2023/06/18 12:02:28;;;;;;;7.47;5.40;;;26.60;97.50;;;;;;4996074;28;20046;-73
2023/06/18 12:05:01;;;;;;;8.57;5.20;;;26.50;97.20;;;;;;4995080;28;20039;-73
2023/06/18 12:07:27;;;;;;;8.00;5.30;;;26.60;97.10;;;;;;5015402;28;20046;-74
2023/06/18 12:09:56;;;;;;;9.48;5.60;;;26.60;96.50;;;;;;5010984;28;20053;-74
2023/06/18 12:12:47;;;;;;;10.02;5.93;;;26.60;96.30;;;;;;5009934;28;20092;-69
2023/06/18 12:15:21;;;;;;;8.55;5.38;;;26.70;95.20;;;;;;4997872;28;20045;-69
2023/06/18 12:17:50;;;;;;;10.13;5.50;;;26.70;95.40;;;;;;4996286;28;20046;-69
2023/06/18 12:20:19;;;;;;;9.35;5.53;;;26.80;95.60;;;;;;5013524;28;20049;-69
2023/06/18 12:22:45;;;;;;;8.07;5.07;;;26.80;95.80;;;;;;4995542;28;20084;-69
2023/06/18 12:25:12;;;;;;;9.23;5.45;;;26.90;95.60;;;;;;5003064;28;20487;-69
2023/06/18 12:27:41;;;;;;;8.13;5.50;;;27.00;96.10;;;;;;5024089;28;20062;-69
2023/06/18 12:30:08;;;;;;;11.27;5.85;;;27.10;95.80;;;;;;5003503;28;20038;-69
2023/06/18 12:32:35;;;;;;;9.13;6.00;;;27.20;94.10;;;;;;5033548;28;20046;-69